Time;durP1;ratioP1;P1;durP2;ratioP2;P2;SDS_P1;SDS_P2;PMS_P1;PMS_P2;Temp;Humidity;BMP_temperature;BMP_pressure;BME280_temperature;BME280_humidity;BME280_pressure;Samples;Min_cycle;Max_cycle;Signal;HPM_P1;HPM_P2
2022/04/25 00:01:17;;;;;;;3.90;3.40;;;5.90;99.90;;;;;;5055261;28;20681;-65
2022/04/25 00:03:44;;;;;;;9.30;3.43;;;5.90;99.90;;;;;;5056514;28;20691;-62
2022/04/25 00:06:09;;;;;;;4.23;3.87;;;6.00;99.90;;;;;;5056508;28;20407;-62
2022/04/25 00:08:35;;;;;;;3.40;3.10;;;5.90;99.90;;;;;;5055569;28;20401;-66
2022/04/25 00:11:01;;;;;;;8.20;3.20;;;5.80;99.90;;;;;;5056491;28;20454;-65
2022/04/25 00:13:27;;;;;;;3.47;3.27;;;5.80;99.90;;;;;;5056342;28;20204;-65
2022/04/25 00:15:52;;;;;;;3.70;3.40;;;5.90;99.90;;;;;;5056235;28;20830;-62
2022/04/25 00:18:18;;;;;;;3.17;2.93;;;5.90;99.90;;;;;;5056224;28;20199;-62
2022/04/25 00:20:44;;;;;;;3.90;3.60;;;5.90;99.90;;;;;;5054940;28;20628;-65
2022/04/25 00:23:10;;;;;;;5.90;3.20;;;5.90;99.90;;;;;;5056129;28;20425;-65
2022/04/25 00:25:36;;;;;;;3.63;3.40;;;6.00;99.90;;;;;;5056129;28;20683;-65
2022/04/25 00:28:03;;;;;;;5.53;3.73;;;6.00;99.90;;;;;;5055968;28;20183;-65
2022/04/25 00:30:29;;;;;;;3.37;3.17;;;6.00;99.90;;;;;;5055199;28;20393;-65
2022/04/25 00:32:56;;;;;;;3.37;2.57;;;6.00;99.90;;;;;;5056091;28;20505;-65
2022/04/25 00:35:22;;;;;;;6.57;3.27;;;5.90;99.90;;;;;;5055969;28;20408;-62
2022/04/25 00:37:49;;;;;;;4.70;3.43;;;5.90;99.90;;;;;;5055631;28;20398;-64
2022/04/25 00:40:15;;;;;;;4.40;3.33;;;5.80;99.90;;;;;;5054753;28;20453;-62
2022/04/25 00:42:41;;;;;;;3.17;2.87;;;5.80;99.90;;;;;;5055795;28;20766;-65
2022/04/25 00:45:11;;;;;;;3.03;2.67;;;6.00;99.90;;;;;;5055950;28;20397;-65
2022/04/25 00:47:38;;;;;;;4.30;3.30;;;5.80;99.90;;;;;;5055972;28;20751;-61
2022/04/25 00:50:04;;;;;;;2.80;2.60;;;5.80;99.90;;;;;;5054908;28;20398;-66
2022/04/25 00:52:29;;;;;;;3.67;3.23;;;5.80;99.90;;;;;;5055331;28;20425;-65
2022/04/25 00:54:57;;;;;;;7.43;3.30;;;5.80;99.90;;;;;;5055653;28;20762;-64
2022/04/25 00:57:22;;;;;;;3.30;3.00;;;5.70;99.90;;;;;;5055091;28;20182;-61
2022/04/25 00:59:49;;;;;;;3.30;3.10;;;5.70;99.90;;;;;;5054644;28;20478;-65
2022/04/25 01:02:14;;;;;;;4.17;3.43;;;5.70;99.90;;;;;;5055383;28;20273;-64
2022/04/25 01:04:40;;;;;;;3.83;3.53;;;5.60;99.90;;;;;;5054526;28;20566;-65
2022/04/25 01:07:06;;;;;;;9.97;3.80;;;5.60;99.90;;;;;;5054125;28;20178;-62
2022/04/25 01:09:31;;;;;;;4.23;3.17;;;5.60;99.90;;;;;;5052776;28;20454;-62
2022/04/25 01:11:58;;;;;;;4.07;3.03;;;5.50;99.90;;;;;;5054256;28;20198;-62
2022/04/25 01:14:24;;;;;;;4.57;3.10;;;5.50;99.90;;;;;;5055173;28;20174;-62
2022/04/25 01:16:50;;;;;;;3.77;3.50;;;5.50;99.90;;;;;;5054800;28;20410;-65
2022/04/25 01:19:15;;;;;;;3.70;2.93;;;5.60;99.90;;;;;;5052969;28;20568;-65
2022/04/25 01:21:55;;;;;;;7.80;3.03;;;5.60;99.90;;;;;;5055169;28;20252;-65
2022/04/25 01:27:18;;;;;;;5.70;3.33;;;5.70;99.90;;;;;;5055097;28;20495;-65
2022/04/25 01:29:47;;;;;;;3.80;3.17;;;5.70;99.90;;;;;;5054266;28;20405;-65
2022/04/25 01:32:13;;;;;;;3.67;2.90;;;5.60;99.90;;;;;;5054830;28;20448;-62
2022/04/25 01:34:39;;;;;;;5.43;3.40;;;5.60;99.90;;;;;;5054672;28;20451;-64
2022/04/25 01:37:06;;;;;;;5.43;3.50;;;5.60;99.90;;;;;;5054368;28;20408;-62
2022/04/25 01:39:40;;;;;;;6.33;3.37;;;5.50;99.90;;;;;;5053929;28;20896;-62
2022/04/25 01:42:07;;;;;;;3.80;3.43;;;5.50;99.90;;;;;;5054739;28;20835;-66
2022/04/25 01:44:34;;;;;;;3.30;3.00;;;5.50;99.90;;;;;;5054736;28;20392;-64
2022/04/25 01:47:00;;;;;;;8.77;4.20;;;5.50;99.90;;;;;;5054712;28;20918;-62
2022/04/25 01:49:26;;;;;;;3.30;3.10;;;5.50;99.90;;;;;;5053782;28;20503;-66
2022/04/25 01:51:52;;;;;;;4.30;3.90;;;5.50;99.90;;;;;;5053222;28;20539;-61
2022/04/25 01:54:27;;;;;;;3.60;3.30;;;5.50;99.90;;;;;;5054323;28;20436;-64
2022/04/25 01:56:55;;;;;;;4.60;2.90;;;5.50;99.90;;;;;;5054179;28;20397;-62
2022/04/25 01:59:22;;;;;;;4.90;3.53;;;5.50;99.90;;;;;;5053553;28;20441;-61
2022/04/25 02:01:49;;;;;;;4.70;3.20;;;5.50;99.90;;;;;;5054360;28;20511;-62
2022/04/25 02:04:15;;;;;;;4.23;3.33;;;5.50;99.90;;;;;;5054472;28;20409;-62
2022/04/25 02:06:41;;;;;;;3.90;3.37;;;5.50;99.90;;;;;;5054227;28;20858;-62
2022/04/25 02:09:08;;;;;;;4.10;3.80;;;5.50;99.90;;;;;;5053337;28;20170;-62
2022/04/25 02:11:34;;;;;;;3.20;3.00;;;5.50;99.90;;;;;;5053801;28;20161;-64
2022/04/25 02:14:00;;;;;;;3.53;3.33;;;5.40;99.90;;;;;;5054090;28;20740;-64
2022/04/25 02:16:26;;;;;;;4.33;3.40;;;5.40;99.90;;;;;;5054114;28;20408;-62
2022/04/25 02:18:53;;;;;;;3.23;3.00;;;5.40;99.90;;;;;;5052835;28;20276;-64
2022/04/25 02:21:19;;;;;;;3.03;2.83;;;5.40;99.90;;;;;;5053358;28;20389;-65
2022/04/25 02:23:46;;;;;;;4.27;3.60;;;5.30;99.90;;;;;;5053918;28;20397;-62
2022/04/25 02:26:12;;;;;;;4.20;3.70;;;5.30;99.90;;;;;;5053858;28;20401;-61
2022/04/25 02:28:38;;;;;;;4.17;3.63;;;5.20;99.90;;;;;;5052664;28;20398;-64
2022/04/25 02:31:05;;;;;;;5.00;4.60;;;5.20;99.90;;;;;;5053514;28;20167;-64
2022/04/25 02:33:32;;;;;;;2.90;2.70;;;5.20;99.90;;;;;;5053874;28;20420;-62
2022/04/25 02:35:59;;;;;;;3.97;3.10;;;5.30;99.90;;;;;;5053697;28;20401;-65
2022/04/25 02:38:25;;;;;;;3.20;2.90;;;5.30;99.90;;;;;;5053596;28;20484;-66
2022/04/25 02:41:04;;;;;;;3.63;3.33;;;5.30;99.90;;;;;;5052808;28;20437;-63
2022/04/25 02:43:40;;;;;;;6.40;3.50;;;5.20;99.90;;;;;;5053512;28;20190;-64
2022/04/25 02:46:10;;;;;;;3.10;2.90;;;5.20;99.90;;;;;;5053753;28;20403;-62
2022/04/25 02:48:37;;;;;;;4.83;2.80;;;5.10;99.90;;;;;;5052327;28;20393;-62
2022/04/25 02:51:04;;;;;;;4.20;3.80;;;5.10;99.90;;;;;;5053581;28;20393;-66
2022/04/25 02:53:30;;;;;;;3.30;3.10;;;5.10;99.90;;;;;;5053516;28;20448;-65
2022/04/25 02:55:56;;;;;;;4.03;3.63;;;4.90;99.90;;;;;;5053538;28;20446;-64
2022/04/25 02:58:23;;;;;;;4.03;3.47;;;5.00;99.90;;;;;;5053203;28;20511;-66
2022/04/25 03:00:49;;;;;;;4.23;3.33;;;4.90;99.90;;;;;;5052637;28;20408;-62
2022/04/25 03:03:17;;;;;;;2.90;2.70;;;4.90;99.90;;;;;;5053163;28;20418;-65
2022/04/25 03:05:47;;;;;;;6.27;3.80;;;5.00;99.90;;;;;;5053120;28;20424;-65
2022/04/25 03:08:17;;;;;;;3.10;2.90;;;5.00;99.90;;;;;;5053254;28;20407;-66
2022/04/25 03:10:45;;;;;;;5.37;3.60;;;5.00;99.90;;;;;;5052394;28;20406;-62
2022/04/25 03:13:12;;;;;;;4.00;3.60;;;4.90;99.90;;;;;;5053169;28;20414;-66
2022/04/25 03:15:41;;;;;;;5.43;3.50;;;5.00;99.90;;;;;;5052148;28;20506;-64
2022/04/25 03:18:08;;;;;;;5.73;3.80;;;5.10;99.90;;;;;;5053160;28;20402;-64
2022/04/25 03:20:34;;;;;;;3.23;2.97;;;5.00;99.90;;;;;;5052165;28;20455;-62
2022/04/25 03:23:00;;;;;;;4.53;2.93;;;5.00;99.90;;;;;;5053103;28;20444;-64
2022/04/25 03:25:26;;;;;;;3.00;2.80;;;5.00;99.90;;;;;;5052606;28;20500;-63
2022/04/25 03:27:52;;;;;;;3.60;3.30;;;5.00;99.90;;;;;;5053074;28;20444;-62
2022/04/25 03:30:18;;;;;;;4.27;3.97;;;4.90;99.90;;;;;;5052200;28;20224;-65
2022/04/25 03:32:47;;;;;;;7.87;3.60;;;4.90;99.90;;;;;;5056829;28;20565;-65
2022/04/25 03:35:17;;;;;;;4.17;3.53;;;4.80;99.90;;;;;;5057068;28;20406;-66
2022/04/25 03:37:44;;;;;;;3.50;3.20;;;4.70;99.90;;;;;;5056975;28;20425;-62
2022/04/25 03:40:11;;;;;;;3.50;3.10;;;4.70;99.90;;;;;;5056077;28;20502;-62
2022/04/25 03:42:42;;;;;;;3.63;3.40;;;4.70;99.90;;;;;;5055625;28;20427;-65
2022/04/25 03:45:09;;;;;;;5.20;3.90;;;4.70;99.90;;;;;;5056613;28;20396;-62
2022/04/25 03:47:38;;;;;;;3.70;3.00;;;4.80;99.90;;;;;;5056990;28;20409;-64
2022/04/25 03:50:08;;;;;;;3.67;3.47;;;4.80;99.90;;;;;;5055989;28;20416;-65
2022/04/25 03:52:35;;;;;;;3.70;3.40;;;4.80;99.90;;;;;;5057028;28;20424;-66
2022/04/25 03:57:48;;;;;;;4.70;3.30;;;4.80;99.90;;;;;;5056857;28;20471;-65
2022/04/25 04:00:14;;;;;;;6.07;3.60;;;4.70;99.90;;;;;;5055280;28;20448;-63
2022/04/25 04:02:39;;;;;;;4.60;4.30;;;4.70;99.90;;;;;;5056784;28;20602;-63
2022/04/25 04:05:05;;;;;;;3.60;3.40;;;4.80;99.90;;;;;;5056707;28;20624;-62
2022/04/25 04:07:31;;;;;;;5.50;4.30;;;4.80;99.90;;;;;;5056620;28;20185;-62
2022/04/25 04:09:58;;;;;;;3.63;3.33;;;4.90;99.90;;;;;;5055620;28;20400;-62
2022/04/25 04:12:28;;;;;;;3.20;3.00;;;4.90;99.90;;;;;;5056529;28;20425;-62
2022/04/25 04:14:53;;;;;;;3.60;3.37;;;4.80;99.90;;;;;;5055456;28;20464;-65
2022/04/25 04:17:19;;;;;;;4.00;3.70;;;4.70;99.90;;;;;;5056236;28;20500;-62
2022/04/25 04:19:46;;;;;;;3.97;3.60;;;4.60;99.90;;;;;;5054873;28;20202;-62
2022/04/25 04:22:12;;;;;;;3.00;2.80;;;4.70;99.90;;;;;;5056157;28;20192;-65
2022/04/25 04:24:37;;;;;;;3.93;3.03;;;4.70;99.90;;;;;;5056440;28;20396;-65
2022/04/25 04:27:04;;;;;;;4.30;4.00;;;4.70;99.90;;;;;;5056150;28;20180;-62
2022/04/25 04:29:34;;;;;;;3.67;3.37;;;4.70;99.90;;;;;;5055169;28;20170;-64
2022/04/25 04:32:02;;;;;;;4.63;4.27;;;4.70;99.90;;;;;;5054625;28;20436;-66
2022/04/25 04:34:28;;;;;;;14.10;3.70;;;4.70;99.90;;;;;;5056122;28;20408;-65
2022/04/25 04:36:54;;;;;;;4.07;3.63;;;4.80;99.90;;;;;;5055824;28;20502;-66
2022/04/25 04:39:20;;;;;;;7.50;3.70;;;4.80;99.90;;;;;;5054811;28;20452;-65
2022/04/25 04:41:46;;;;;;;4.10;3.80;;;4.90;99.90;;;;;;5055777;28;20505;-64
2022/04/25 04:44:12;;;;;;;3.80;3.50;;;4.90;99.90;;;;;;5054809;28;20791;-62
2022/04/25 04:46:38;;;;;;;3.80;3.50;;;4.90;99.90;;;;;;5055990;28;20882;-65
2022/04/25 04:49:05;;;;;;;4.27;3.87;;;4.90;99.90;;;;;;5054847;28;20405;-65
2022/04/25 04:51:30;;;;;;;4.17;3.73;;;4.90;99.90;;;;;;5055792;28;20525;-62
2022/04/25 04:53:59;;;;;;;4.97;3.30;;;4.80;99.90;;;;;;5055689;28;20397;-64
2022/04/25 04:56:32;;;;;;;3.60;3.33;;;4.80;99.90;;;;;;5055486;28;20236;-62
2022/04/25 04:58:58;;;;;;;3.73;3.43;;;4.90;99.90;;;;;;5054362;28;20453;-66
2022/04/25 05:01:25;;;;;;;5.13;3.53;;;4.90;99.90;;;;;;5055562;28;20464;-62
2022/04/25 05:03:51;;;;;;;9.00;3.83;;;4.80;99.90;;;;;;5055597;28;20402;-61
2022/04/25 05:06:17;;;;;;;4.93;4.50;;;4.90;99.90;;;;;;5055250;28;20396;-62
2022/04/25 05:08:42;;;;;;;6.13;3.57;;;4.90;99.90;;;;;;5053293;28;20210;-62
2022/04/25 05:11:10;;;;;;;12.27;4.33;;;4.90;99.90;;;;;;5054354;28;20185;-62
2022/04/25 05:13:36;;;;;;;4.30;3.97;;;4.90;99.90;;;;;;5054710;28;20930;-65
2022/04/25 05:16:03;;;;;;;3.73;3.27;;;5.00;99.90;;;;;;5055291;28;20455;-63
2022/04/25 05:18:32;;;;;;;4.00;3.60;;;5.00;99.90;;;;;;5054391;28;20949;-70
2022/04/25 05:20:58;;;;;;;4.40;3.97;;;5.10;99.90;;;;;;5055265;28;20716;-62
2022/04/25 05:23:24;;;;;;;4.77;4.23;;;5.10;99.90;;;;;;5055122;28;20416;-61
2022/04/25 05:25:50;;;;;;;5.83;4.20;;;5.20;99.90;;;;;;5055053;28;20891;-65
2022/04/25 05:28:16;;;;;;;3.97;3.50;;;5.30;99.90;;;;;;5054924;28;20484;-63
2022/04/25 05:30:42;;;;;;;5.20;3.93;;;5.40;99.90;;;;;;5053575;28;20240;-62
2022/04/25 05:33:09;;;;;;;4.17;3.87;;;5.50;99.90;;;;;;5054856;28;20237;-65
2022/04/25 05:35:35;;;;;;;4.40;4.00;;;5.50;99.90;;;;;;5054999;28;20451;-66
2022/04/25 05:38:02;;;;;;;5.97;4.57;;;5.60;99.90;;;;;;5054898;28;20403;-62
2022/04/25 05:40:28;;;;;;;3.27;3.07;;;5.70;99.90;;;;;;5053652;28;20554;-63
2022/04/25 05:42:56;;;;;;;4.10;3.70;;;5.80;99.90;;;;;;5054620;28;20425;-65
2022/04/25 05:45:24;;;;;;;5.73;3.03;;;5.80;99.90;;;;;;5054830;28;20390;-62
2022/04/25 05:47:51;;;;;;;5.43;4.07;;;5.90;99.90;;;;;;5054699;28;20391;-62
2022/04/25 05:53:02;;;;;;;3.37;3.07;;;6.10;99.90;;;;;;5054867;28;20421;-65
2022/04/25 05:55:28;;;;;;;3.13;2.93;;;6.20;99.90;;;;;;5054505;28;20405;-63
2022/04/25 05:57:55;;;;;;;3.20;3.00;;;6.40;99.90;;;;;;5054572;28;20429;-65
2022/04/25 06:00:21;;;;;;;3.13;2.93;;;6.50;99.90;;;;;;5053589;28;20457;-64
2022/04/25 06:02:47;;;;;;;3.97;3.67;;;6.50;99.90;;;;;;5054170;28;20809;-66
2022/04/25 06:05:15;;;;;;;4.60;3.60;;;6.50;99.90;;;;;;5054401;28;20166;-63
2022/04/25 06:07:43;;;;;;;4.20;3.90;;;6.60;99.90;;;;;;5054398;28;20389;-62
2022/04/25 06:10:09;;;;;;;3.17;2.97;;;6.60;99.90;;;;;;5052904;28;20882;-65
2022/04/25 06:12:43;;;;;;;2.90;2.70;;;6.70;99.90;;;;;;5054092;28;20417;-66
2022/04/25 06:15:10;;;;;;;5.00;3.40;;;6.70;99.90;;;;;;5054145;28;20404;-62
2022/04/25 06:17:37;;;;;;;3.40;3.20;;;6.80;99.90;;;;;;5054165;28;20397;-62
2022/04/25 06:20:04;;;;;;;3.57;3.37;;;6.90;99.90;;;;;;5052993;28;20443;-62
2022/04/25 06:22:29;;;;;;;4.20;3.80;;;7.00;99.90;;;;;;5053823;28;20941;-62
2022/04/25 06:24:55;;;;;;;3.53;2.90;;;7.00;99.90;;;;;;5052847;28;20406;-63
2022/04/25 06:27:21;;;;;;;3.70;3.50;;;7.10;99.90;;;;;;5053558;28;20221;-61
2022/04/25 06:29:46;;;;;;;3.73;3.07;;;7.10;99.90;;;;;;5053093;28;20198;-65
2022/04/25 06:32:13;;;;;;;4.40;3.50;;;7.20;99.90;;;;;;5053794;28;20551;-62
2022/04/25 06:34:40;;;;;;;3.10;2.90;;;7.20;99.90;;;;;;5053760;28;20193;-65
2022/04/25 06:37:06;;;;;;;3.40;3.20;;;7.20;99.90;;;;;;5052322;28;20416;-65
2022/04/25 06:39:33;;;;;;;3.83;2.93;;;7.20;99.90;;;;;;5052820;28;20437;-66
2022/04/25 06:41:59;;;;;;;3.30;3.10;;;7.30;99.90;;;;;;5053695;28;20424;-65
2022/04/25 06:44:25;;;;;;;3.47;3.17;;;7.30;99.90;;;;;;5053676;28;20397;-62
2022/04/25 06:46:50;;;;;;;3.40;3.20;;;7.40;99.90;;;;;;5052152;28;20409;-66
2022/04/25 06:49:25;;;;;;;3.20;2.80;;;7.50;99.90;;;;;;5052581;28;20167;-62
2022/04/25 06:51:56;;;;;;;3.60;3.40;;;7.60;99.90;;;;;;5053579;28;20190;-66
2022/04/25 06:54:26;;;;;;;3.90;3.60;;;7.70;99.90;;;;;;5053615;28;20397;-65
2022/04/25 06:56:55;;;;;;;3.97;3.60;;;7.70;99.90;;;;;;5053377;28;20410;-62
2022/04/25 06:59:22;;;;;;;3.40;3.10;;;7.70;99.90;;;;;;5052481;28;20531;-66
2022/04/25 07:01:49;;;;;;;2.67;2.47;;;7.80;99.90;;;;;;5053063;28;20428;-66
2022/04/25 07:04:16;;;;;;;2.73;2.60;;;8.00;99.90;;;;;;5052182;28;20729;-62
2022/04/25 07:06:43;;;;;;;2.80;2.60;;;8.00;99.90;;;;;;5052953;28;20478;-62
2022/04/25 07:09:12;;;;;;;3.83;3.53;;;8.10;99.90;;;;;;5052388;28;20744;-66
2022/04/25 07:11:43;;;;;;;3.20;2.97;;;8.10;99.90;;;;;;5053275;28;20421;-65
2022/04/25 07:14:19;;;;;;;5.83;4.47;;;8.10;99.90;;;;;;5053253;28;20414;-63
2022/04/25 07:16:48;;;;;;;3.33;3.13;;;8.20;99.90;;;;;;5053411;28;20409;-62
2022/04/25 07:19:14;;;;;;;3.00;2.80;;;8.20;99.90;;;;;;5052144;28;20540;-65
2022/04/25 07:29:52;;;;;;;3.87;2.70;;;8.70;99.90;;;;;;5052210;28;20441;-65
2022/04/25 07:32:18;;;;;;;3.17;2.97;;;8.80;99.90;;;;;;5051803;28;20428;-62
2022/04/25 07:34:48;;;;;;;5.13;3.23;;;8.90;99.90;;;;;;5053141;28;20229;-62
2022/04/25 07:37:15;;;;;;;2.87;2.67;;;8.90;99.90;;;;;;5052957;28;20397;-65
2022/04/25 07:39:42;;;;;;;3.00;2.80;;;8.90;99.90;;;;;;5052014;28;20454;-66
2022/04/25 07:42:08;;;;;;;7.60;2.93;;;9.00;99.90;;;;;;5052524;28;20446;-62
2022/04/25 07:44:34;;;;;;;2.97;2.73;;;9.10;99.90;;;;;;5051615;28;20408;-66
2022/04/25 07:47:00;;;;;;;3.47;3.17;;;9.20;99.90;;;;;;5052967;28;20401;-62
2022/04/25 07:49:26;;;;;;;4.17;3.87;;;9.30;99.90;;;;;;5052028;28;20163;-65
2022/04/25 07:51:52;;;;;;;3.53;3.23;;;9.30;99.90;;;;;;5052749;28;20199;-66
2022/04/25 07:54:21;;;;;;;3.50;3.20;;;9.30;99.90;;;;;;5053245;28;20364;-65
2022/04/25 07:56:47;;;;;;;3.17;2.97;;;9.30;99.90;;;;;;5052963;28;20482;-66
2022/04/25 07:59:12;;;;;;;2.90;2.70;;;9.40;99.90;;;;;;5051739;28;20538;-65
2022/04/25 08:01:38;;;;;;;4.97;3.17;;;9.50;99.90;;;;;;5051712;28;20194;-63
2022/04/25 08:04:04;;;;;;;3.40;3.10;;;9.50;99.90;;;;;;5051590;28;20209;-62
2022/04/25 08:06:30;;;;;;;3.40;3.10;;;9.70;99.90;;;;;;5052965;28;20399;-66
2022/04/25 08:08:57;;;;;;;4.17;2.83;;;9.80;99.90;;;;;;5051929;28;20401;-62
2022/04/25 08:11:23;;;;;;;5.93;3.50;;;9.80;99.90;;;;;;5052607;28;20659;-65
2022/04/25 08:19:20;;;;;;;3.80;3.50;;;9.90;99.90;;;;;;5054805;28;20496;-65
2022/04/25 08:21:47;;;;;;;4.37;3.27;;;9.90;99.90;;;;;;5054881;28;20463;-63
2022/04/25 08:24:13;;;;;;;3.43;3.20;;;10.00;99.90;;;;;;5055023;28;20407;-61
2022/04/25 08:26:39;;;;;;;3.80;3.40;;;10.10;99.90;;;;;;5056250;28;20483;-62
2022/04/25 08:29:05;;;;;;;3.67;3.40;;;10.10;99.90;;;;;;5055240;28;20408;-62
2022/04/25 08:31:32;;;;;;;3.70;3.40;;;10.20;99.90;;;;;;5056138;28;20765;-62
2022/04/25 08:33:58;;;;;;;3.67;3.37;;;10.30;99.90;;;;;;5055820;28;20489;-65
2022/04/25 08:36:24;;;;;;;4.17;3.80;;;10.50;99.90;;;;;;5055707;28;20794;-66
2022/04/25 08:38:50;;;;;;;3.07;2.87;;;10.70;99.90;;;;;;5055140;28;20439;-66
2022/04/25 08:41:21;;;;;;;4.40;3.27;;;10.90;99.90;;;;;;5055964;28;20616;-65
2022/04/25 08:43:52;;;;;;;3.43;3.20;;;10.90;99.90;;;;;;5055751;28;20425;-67
2022/04/25 08:46:21;;;;;;;2.30;2.20;;;10.80;99.90;;;;;;5055706;28;20391;-67
2022/04/25 08:48:47;;;;;;;3.47;3.17;;;10.90;99.90;;;;;;5054987;28;20416;-66
2022/04/25 08:51:14;;;;;;;3.10;2.80;;;10.90;99.90;;;;;;5055696;28;20376;-62
2022/04/25 08:53:41;;;;;;;3.10;2.90;;;11.20;99.90;;;;;;5055422;28;20187;-65
2022/04/25 08:56:12;;;;;;;5.30;2.80;;;11.40;99.90;;;;;;5055176;28;20405;-63
2022/04/25 08:58:42;;;;;;;3.57;3.37;;;11.50;99.90;;;;;;5054838;28;20507;-67
2022/04/25 09:01:12;;;;;;;3.97;3.67;;;11.70;99.90;;;;;;5055611;28;20405;-62
2022/04/25 09:03:38;;;;;;;3.37;3.13;;;11.50;97.40;;;;;;5055541;28;20871;-66
2022/04/25 09:06:05;;;;;;;3.43;3.13;;;11.50;94.90;;;;;;5055482;28;20853;-66
2022/04/25 09:08:32;;;;;;;3.30;3.10;;;11.60;93.30;;;;;;5054843;28;20413;-67
2022/04/25 09:12:09;;;;;;;3.37;3.17;;;11.70;92.60;;;;;;5055780;28;20448;-65
2022/04/25 09:13:45;;;;;;;8.00;3.40;;;11.70;92.60;;;;;;5054761;28;20387;-65
2022/04/25 09:16:17;;;;;;;2.80;2.60;;;12.10;92.80;;;;;;5055207;28;20372;-63
2022/04/25 09:18:43;;;;;;;3.60;3.10;;;12.30;92.90;;;;;;5054558;28;20457;-66
2022/04/25 09:21:13;;;;;;;3.20;2.90;;;12.40;92.90;;;;;;5055247;28;20375;-65
2022/04/25 09:23:42;;;;;;;3.53;3.33;;;12.20;92.80;;;;;;5055117;28;20409;-62
2022/04/25 09:26:14;;;;;;;3.50;3.20;;;12.20;92.50;;;;;;5055174;28;20709;-65
2022/04/25 09:28:50;;;;;;;4.10;3.57;;;12.30;87.50;;;;;;5054079;28;20737;-63
2022/04/25 09:31:16;;;;;;;6.40;3.50;;;12.80;91.40;;;;;;5055061;28;20380;-66
2022/04/25 09:33:42;;;;;;;3.23;2.93;;;13.40;90.00;;;;;;5054504;28;20443;-67
2022/04/25 09:36:08;;;;;;;3.23;2.93;;;13.60;88.60;;;;;;5053841;28;20411;-63
2022/04/25 09:38:36;;;;;;;3.07;2.70;;;13.80;79.60;;;;;;5054022;28;20397;-60
2022/04/25 09:41:04;;;;;;;3.40;3.10;;;14.30;80.80;;;;;;5054979;28;20397;-60
2022/04/25 09:43:32;;;;;;;2.80;2.60;;;14.80;73.10;;;;;;5054693;28;20876;-66
2022/04/25 09:46:01;;;;;;;3.00;2.80;;;14.60;61.90;;;;;;5054683;28;20404;-67
2022/04/25 09:48:27;;;;;;;3.17;2.87;;;14.60;58.50;;;;;;5054398;28;20401;-66
2022/04/25 09:51:11;;;;;;;5.03;2.63;;;15.00;61.90;;;;;;5054488;28;20422;-66
2022/04/25 09:53:52;;;;;;;3.17;2.97;;;15.50;64.30;;;;;;5054431;28;20432;-66
2022/04/25 09:56:24;;;;;;;3.10;2.90;;;15.70;48.10;;;;;;5054509;28;20416;-66
2022/04/25 09:59:07;;;;;;;2.73;2.43;;;15.80;45.80;;;;;;5053579;28;20469;-65
2022/04/25 10:01:35;;;;;;;3.20;2.90;;;15.70;40.10;;;;;;5054421;28;20459;-62
2022/04/25 10:04:02;;;;;;;3.00;2.80;;;16.10;34.30;;;;;;5053220;28;20815;-63
2022/04/25 10:06:34;;;;;;;2.80;2.60;;;16.60;37.10;;;;;;5053155;28;20417;-65
2022/04/25 10:09:03;;;;;;;3.80;2.43;;;17.00;37.80;;;;;;5053676;28;20447;-63
2022/04/25 10:11:33;;;;;;;5.63;2.60;;;17.30;32.30;;;;;;5053680;28;20767;-63
2022/04/25 10:14:00;;;;;;;2.37;2.27;;;17.10;24.60;;;;;;5054337;28;20739;-66
2022/04/25 10:16:27;;;;;;;4.27;2.80;;;16.80;21.20;;;;;;5054134;28;20885;-63
2022/04/25 10:18:54;;;;;;;6.20;3.00;;;16.70;19.20;;;;;;5053224;28;20800;-66
2022/04/25 10:21:21;;;;;;;2.70;2.50;;;16.50;14.50;;;;;;5053999;28;20409;-63
2022/04/25 10:23:47;;;;;;;2.50;2.30;;;16.50;15.20;;;;;;5052980;28;20423;-63
2022/04/25 10:26:13;;;;;;;3.13;2.50;;;16.70;14.10;;;;;;5054052;28;20398;-66
2022/04/25 10:28:52;;;;;;;3.10;2.73;;;16.70;8.30;;;;;;5053217;28;20225;-65
2022/04/25 10:31:24;;;;;;;2.30;2.20;;;16.30;2.80;;;;;;5053773;28;20368;-67
2022/04/25 10:33:58;;;;;;;2.60;2.40;;;16.60;4.40;;;;;;5053852;28;20413;-62
2022/04/25 10:36:45;;;;;;;2.97;2.70;;;16.90;10.40;;;;;;5053754;28;20388;-66
2022/04/25 10:39:31;;;;;;;4.03;2.93;;;16.90;1.70;;;;;;5052896;28;20952;-66
2022/04/25 10:44:42;;;;;;;2.30;2.10;;;16.40;1.00;;;;;;5053566;28;20408;-67
2022/04/25 10:47:16;;;;;;;2.87;2.67;;;16.40;1.00;;;;;;5053484;28;20838;-67
2022/04/25 10:49:46;;;;;;;2.63;2.43;;;16.50;1.00;;;;;;5052492;28;20408;-64
2022/04/25 10:52:42;;;;;;;3.50;2.50;;;17.10;1.00;;;;;;5053472;28;20432;-63
2022/04/25 10:55:23;;;;;;;2.37;2.03;;;17.50;1.00;;;;;;5053371;28;20374;-67
2022/04/25 10:58:04;;;;;;;2.30;2.10;;;17.10;1.00;;;;;;5053346;28;21036;-66
2022/04/25 11:00:41;;;;;;;3.00;2.80;;;17.10;1.00;;;;;;5052623;28;20497;-66
2022/04/25 11:03:09;;;;;;;3.03;2.73;;;17.50;1.00;;;;;;5052171;28;20461;-63
2022/04/25 11:05:36;;;;;;;2.50;2.30;;;17.70;1.00;;;;;;5053521;28;20755;-63
2022/04/25 11:08:20;;;;;;;2.90;2.70;;;17.80;1.00;;;;;;5053001;28;20410;-66
2022/04/25 11:11:05;;;;;;;2.80;2.60;;;17.60;1.00;;;;;;5052855;28;20818;-66
2022/04/25 11:13:32;;;;;;;2.90;2.50;;;17.50;1.00;;;;;;5053343;28;20801;-66
2022/04/25 11:16:21;;;;;;;2.97;2.77;;;17.10;1.00;;;;;;5053617;28;20448;-63
2022/04/25 11:19:13;;;;;;;2.80;2.53;;;17.00;1.00;;;;;;5052611;28;20532;-66
2022/04/25 11:21:49;;;;;;;5.33;2.63;;;17.00;1.00;;;;;;5053270;28;20452;-63
2022/04/25 11:24:28;;;;;;;2.67;2.47;;;17.50;1.00;;;;;;5053227;28;20901;-62
2022/04/25 11:26:56;;;;;;;3.00;2.37;;;17.50;1.00;;;;;;5052761;28;20383;-66
2022/04/25 11:29:21;;;;;;;8.87;2.70;;;17.90;1.00;;;;;;5052365;28;20409;-66
2022/04/25 11:31:47;;;;;;;4.20;2.70;;;18.60;1.00;;;;;;5051705;28;20437;-62
2022/04/25 11:34:14;;;;;;;2.40;2.20;;;18.70;1.00;;;;;;5053218;28;20179;-66
2022/04/25 11:36:44;;;;;;;2.60;2.40;;;18.10;1.00;;;;;;5053048;28;20196;-66
2022/04/25 11:42:01;;;;;;;2.30;2.20;;;17.10;1.00;;;;;;5052946;28;20416;-62
2022/04/25 11:44:26;;;;;;;3.40;2.50;;;17.30;1.00;;;;;;5053167;28;20833;-67
2022/04/25 11:46:53;;;;;;;2.43;2.23;;;17.50;1.00;;;;;;5052633;28;20174;-65
2022/04/25 11:49:30;;;;;;;2.33;2.13;;;17.50;1.00;;;;;;5052262;28;20156;-63
2022/04/25 11:51:58;;;;;;;4.00;2.70;;;17.40;1.00;;;;;;5053698;28;20427;-67
2022/04/25 11:54:25;;;;;;;2.80;2.50;;;17.70;1.00;;;;;;5056822;28;20405;-66
2022/04/25 11:56:50;;;;;;;3.83;2.20;;;17.80;1.00;;;;;;5056794;28;20497;-63
2022/04/25 11:59:18;;;;;;;3.00;2.30;;;17.40;1.00;;;;;;5055927;28;20535;-65
2022/04/25 12:01:49;;;;;;;2.40;2.20;;;17.20;1.00;;;;;;5056262;28;20714;-65
2022/04/25 12:04:22;;;;;;;1.83;1.73;;;18.00;1.00;;;;;;5056423;28;20396;-62
2022/04/25 12:07:12;;;;;;;1.97;1.83;;;18.60;1.00;;;;;;5056746;28;20413;-63
2022/04/25 12:15:40;;;;;;;2.40;2.20;;;19.90;1.00;;;;;;5056563;28;20396;-66
2022/04/25 12:18:21;;;;;;;4.07;2.40;;;19.30;1.00;;;;;;5056504;28;20782;-66
2022/04/25 12:20:47;;;;;;;2.10;1.90;;;18.60;1.00;;;;;;5055724;28;20448;-60
2022/04/25 12:23:25;;;;;;;3.27;2.97;;;18.30;1.00;;;;;;5055779;28;20445;-66
2022/04/25 12:25:52;;;;;;;3.00;2.80;;;17.60;1.00;;;;;;5056135;28;20458;-66
2022/04/25 12:28:20;;;;;;;2.87;2.67;;;17.30;1.00;;;;;;5056319;28;20413;-63
2022/04/25 12:30:57;;;;;;;2.33;2.10;;;17.50;1.00;;;;;;5055654;28;20883;-67
2022/04/25 12:33:23;;;;;;;5.87;3.03;;;17.50;1.00;;;;;;5056039;28;20421;-65
2022/04/25 12:36:06;;;;;;;2.73;2.53;;;16.70;1.00;;;;;;5055966;28;20408;-67
2022/04/25 12:38:43;;;;;;;4.33;3.03;;;16.00;1.00;;;;;;5055462;28;20413;-67
2022/04/25 12:41:11;;;;;;;3.57;3.20;;;15.70;1.00;;;;;;5054058;28;20405;-62
2022/04/25 12:43:42;;;;;;;3.83;3.53;;;15.20;1.00;;;;;;5055699;28;20422;-69
2022/04/25 12:46:09;;;;;;;3.80;3.50;;;15.20;1.00;;;;;;5055773;28;20406;-67
2022/04/25 12:48:54;;;;;;;2.80;2.60;;;15.70;1.00;;;;;;5055372;28;20393;-66
2022/04/25 12:51:45;;;;;;;3.20;3.00;;;16.30;1.00;;;;;;5055594;28;21031;-67
2022/04/25 12:54:31;;;;;;;4.30;3.83;;;16.80;1.00;;;;;;5055607;28;20397;-68
2022/04/25 12:57:15;;;;;;;4.33;3.80;;;17.10;1.00;;;;;;5055500;28;20436;-66
2022/04/25 12:59:53;;;;;;;5.50;3.27;;;17.10;1.00;;;;;;5054526;28;20498;-68
2022/04/25 13:02:35;;;;;;;3.50;3.20;;;17.40;1.00;;;;;;5055406;28;20487;-68
2022/04/25 13:05:04;;;;;;;3.53;3.23;;;17.80;1.00;;;;;;5054929;28;20401;-68
2022/04/25 13:07:37;;;;;;;3.20;2.93;;;18.30;1.00;;;;;;5055335;28;20412;-67
2022/04/25 13:10:08;;;;;;;11.20;2.73;;;18.60;1.00;;;;;;5054651;28;20448;-65
2022/04/25 13:12:39;;;;;;;9.27;3.33;;;19.10;1.00;;;;;;5055377;28;20425;-64
2022/04/25 13:15:19;;;;;;;3.00;2.57;;;19.20;1.00;;;;;;5054821;28;20447;-66
2022/04/25 13:17:45;;;;;;;3.00;2.70;;;19.20;1.00;;;;;;5055197;28;20397;-67
2022/04/25 13:20:16;;;;;;;3.43;3.10;;;19.20;1.00;;;;;;5054389;28;20445;-67
2022/04/25 13:22:43;;;;;;;3.60;3.30;;;19.20;1.00;;;;;;5055142;28;20932;-67
2022/04/25 13:25:10;;;;;;;3.27;2.80;;;19.20;1.00;;;;;;5055289;28;20413;-67
2022/04/25 13:27:36;;;;;;;4.53;3.70;;;18.90;1.00;;;;;;5055021;28;20905;-66
2022/04/25 13:30:05;;;;;;;3.67;3.37;;;18.90;1.00;;;;;;5054390;28;20401;-65
2022/04/25 13:32:31;;;;;;;3.80;3.00;;;19.20;1.00;;;;;;5054446;28;20547;-66
2022/04/25 13:34:57;;;;;;;3.43;3.20;;;19.50;1.00;;;;;;5055070;28;20410;-65
2022/04/25 13:37:22;;;;;;;3.23;2.90;;;20.30;1.00;;;;;;5054943;28;20400;-65